Time;durP1;ratioP1;P1;durP2;ratioP2;P2;SDS_P1;SDS_P2;PMS_P1;PMS_P2;Temp;Humidity;BMP_temperature;BMP_pressure;BME280_temperature;BME280_humidity;BME280_pressure;Samples;Min_cycle;Max_cycle;Signal;HPM_P1;HPM_P2
2024/01/07 00:01:58;;;;;;;50.28;18.00;;;;;;;3.74;100.00;96745.72;4997955;28;20406;-78
2024/01/07 00:04:24;;;;;;;48.78;17.15;;;;;;;3.73;100.00;96747.53;4997841;28;20457;-78
2024/01/07 00:06:50;;;;;;;43.33;15.55;;;;;;;3.74;100.00;96740.50;4997292;28;20964;-78
2024/01/07 00:09:17;;;;;;;44.20;15.43;;;;;;;3.74;100.00;96748.34;4997866;28;20406;-78
2024/01/07 00:11:43;;;;;;;49.17;16.75;;;;;;;3.73;100.00;96744.13;4997008;28;20902;-78
2024/01/07 00:14:09;;;;;;;42.13;16.13;;;;;;;3.73;100.00;96751.97;4997036;28;20903;-78
2024/01/07 00:16:37;;;;;;;43.60;15.60;;;;;;;3.72;100.00;96747.75;4997410;28;20406;-79
2024/01/07 00:19:03;;;;;;;44.47;15.20;;;;;;;3.72;100.00;96750.38;4996624;28;20501;-78
2024/01/07 00:21:29;;;;;;;46.70;16.88;;;;;;;3.70;100.00;96750.59;4995994;28;20478;-78
2024/01/07 00:23:55;;;;;;;46.43;15.40;;;;;;;3.70;100.00;96753.22;4996228;28;20484;-79
2024/01/07 00:26:21;;;;;;;54.88;17.95;;;;;;;3.69;100.00;96749.00;4996004;28;20403;-78
2024/01/07 00:28:47;;;;;;;49.37;16.87;;;;;;;3.69;100.00;96748.19;4995153;28;20406;-78
2024/01/07 00:31:13;;;;;;;51.00;17.40;;;;;;;3.70;100.00;96750.59;4996452;28;20476;-78
2024/01/07 00:33:41;;;;;;;54.65;17.98;;;;;;;3.70;100.00;96745.34;4997648;28;20938;-78
2024/01/07 00:36:07;;;;;;;53.88;17.40;;;;;;;3.71;100.00;96749.56;5014608;28;20397;-78
2024/01/07 00:38:33;;;;;;;55.00;18.33;;;;;;;3.69;100.00;96748.19;5014656;28;20405;-78
2024/01/07 00:41:00;;;;;;;55.60;18.73;;;;;;;3.69;100.00;96748.19;5015433;28;20409;-78
2024/01/07 00:43:26;;;;;;;43.17;16.30;;;;;;;3.69;100.00;96748.19;5014388;28;20400;-78
2024/01/07 00:45:52;;;;;;;39.97;15.57;;;;;;;3.70;100.00;96752.41;5014955;28;20475;-78
2024/01/07 00:48:18;;;;;;;41.40;14.90;;;;;;;3.69;100.00;96743.75;5013590;28;20924;-78
2024/01/07 00:50:45;;;;;;;41.13;14.68;;;;;;;3.70;100.00;96747.97;5013337;28;20829;-78
2024/01/07 00:53:11;;;;;;;42.30;15.52;;;;;;;3.70;100.00;96753.22;5013764;28;20401;-78
2024/01/07 00:55:38;;;;;;;45.03;14.73;;;;;;;3.70;100.00;96747.97;5014253;28;20476;-78
2024/01/07 00:58:04;;;;;;;67.82;20.10;;;;;;;3.70;100.00;96745.34;5013784;28;20432;-79
2024/01/07 01:00:30;;;;;;;54.45;17.10;;;;;;;3.68;100.00;96747.41;5013245;28;20773;-78
2024/01/07 01:02:56;;;;;;;66.93;21.48;;;;;;;3.68;100.00;96749.22;5009651;28;20394;-78
2024/01/07 01:05:22;;;;;;;87.85;25.33;;;;;;;3.65;100.00;96754.91;4994328;28;20880;-78
2024/01/07 01:07:51;;;;;;;69.80;21.88;;;;;;;3.61;100.00;96751.91;4994138;28;20883;-78
2024/01/07 01:10:18;;;;;;;69.22;19.98;;;;;;;3.61;100.00;96756.38;4994078;28;20458;-78
2024/01/07 01:12:45;;;;;;;57.88;17.70;;;;;;;3.61;100.00;96762.38;4994508;28;20489;-78
2024/01/07 01:15:11;;;;;;;64.85;17.77;;;;;;;3.62;100.00;96757.94;4994114;28;20442;-78
2024/01/07 01:17:37;;;;;;;64.07;18.58;;;;;;;3.61;100.00;96759.75;4994240;28;20414;-78
2024/01/07 01:20:04;;;;;;;71.00;19.10;;;;;;;3.60;100.00;96767.88;4993938;28;20406;-78
2024/01/07 01:22:30;;;;;;;86.00;20.80;;;;;;;3.59;100.00;96766.25;4993805;28;20399;-78
2024/01/07 01:24:57;;;;;;;82.85;22.23;;;;;;;3.57;100.00;96763.88;4993801;28;20449;-78
2024/01/07 01:27:24;;;;;;;76.38;18.67;;;;;;;3.57;100.00;96770.91;4993963;28;20497;-78
2024/01/07 01:29:50;;;;;;;84.80;18.55;;;;;;;3.57;100.00;96770.91;4993530;28;20405;-78
2024/01/07 01:32:16;;;;;;;87.95;21.17;;;;;;;3.55;100.00;96778.19;4994497;28;20414;-78
2024/01/07 01:34:42;;;;;;;84.67;21.43;;;;;;;3.54;100.00;96780.00;4993676;28;20489;-78
2024/01/07 01:37:09;;;;;;;73.03;18.15;;;;;;;3.53;100.00;96772.38;4994232;28;20457;-78
2024/01/07 01:39:36;;;;;;;82.40;19.47;;;;;;;3.52;100.00;96774.19;4993148;28;20463;-78
2024/01/07 01:42:04;;;;;;;81.10;18.87;;;;;;;3.52;100.00;96770.78;4997055;28;20477;-78
2024/01/07 01:44:31;;;;;;;75.32;18.42;;;;;;;3.52;100.00;96771.59;4998535;28;20402;-78
2024/01/07 01:46:57;;;;;;;71.78;16.75;;;;;;;3.52;100.00;96771.59;4998396;28;20767;-78
2024/01/07 01:49:24;;;;;;;74.68;17.63;;;;;;;3.53;100.00;96777.63;4998388;28;20449;-78
2024/01/07 01:51:52;;;;;;;77.15;18.17;;;;;;;3.54;100.00;96776.56;4998263;28;20454;-78
2024/01/07 01:54:19;;;;;;;70.85;18.08;;;;;;;3.53;100.00;96775.81;4998185;28;20764;-78
2024/01/07 01:56:46;;;;;;;76.15;18.17;;;;;;;3.51;100.00;96780.44;4998750;28;20395;-78
2024/01/07 01:59:16;;;;;;;83.30;17.50;;;;;;;3.52;100.00;96779.44;4998461;28;20405;-78
2024/01/07 02:01:42;;;;;;;73.63;18.27;;;;;;;3.50;100.00;96774.41;4998431;28;20770;-78
2024/01/07 02:04:09;;;;;;;89.30;20.60;;;;;;;3.49;100.00;96774.63;4998729;28;20395;-79
2024/01/07 02:06:36;;;;;;;75.28;18.25;;;;;;;3.50;100.00;96776.22;4998490;28;20729;-78
2024/01/07 02:09:02;;;;;;;109.97;21.17;;;;;;;3.49;100.00;96780.66;4998295;28;20403;-79
2024/01/07 02:11:28;;;;;;;87.80;21.05;;;;;;;3.47;100.00;96777.47;4998259;28;20432;-78
2024/01/07 02:13:54;;;;;;;97.78;21.67;;;;;;;3.46;100.00;96781.09;4998689;28;20402;-78
2024/01/07 02:16:22;;;;;;;79.30;20.55;;;;;;;3.47;100.00;96779.28;4998356;28;20461;-78
2024/01/07 02:18:48;;;;;;;98.63;23.13;;;;;;;3.45;100.00;96781.34;4998465;28;20441;-78
2024/01/07 02:21:15;;;;;;;104.10;24.42;;;;;;;3.45;100.00;96779.53;4998249;28;20406;-78
2024/01/07 02:23:41;;;;;;;94.90;22.63;;;;;;;3.45;100.00;96776.91;4998689;28;20475;-78
2024/01/07 02:26:09;;;;;;;96.30;24.05;;;;;;;3.44;100.00;96777.94;4997849;28;20418;-78
2024/01/07 02:28:35;;;;;;;75.88;21.80;;;;;;;3.45;100.00;96779.53;4997905;28;20763;-78
2024/01/07 02:31:01;;;;;;;76.77;20.80;;;;;;;3.45;100.00;96776.91;4997381;28;20915;-78
2024/01/07 02:33:28;;;;;;;79.78;20.15;;;;;;;3.47;100.00;96784.50;4997532;28;20399;-78
2024/01/07 02:35:54;;;;;;;77.78;21.08;;;;;;;3.48;100.00;96781.69;4998078;28;20427;-78
2024/01/07 02:38:20;;;;;;;74.40;19.25;;;;;;;3.48;100.00;96778.25;4997805;28;20405;-78
2024/01/07 02:40:46;;;;;;;67.35;18.73;;;;;;;3.48;100.00;96779.06;4997593;28;20430;-78
2024/01/07 02:43:13;;;;;;;67.75;18.92;;;;;;;3.49;100.00;96782.47;4998310;28;20799;-79
2024/01/07 02:45:40;;;;;;;65.28;17.98;;;;;;;3.49;100.00;96778.06;4998302;28;20402;-78
2024/01/07 02:48:06;;;;;;;69.55;19.15;;;;;;;3.51;100.00;96783.06;4998862;28;20871;-78
2024/01/07 02:50:33;;;;;;;78.50;22.48;;;;;;;3.52;100.00;96778.63;5003042;28;20763;-78
2024/01/07 02:52:59;;;;;;;81.50;22.23;;;;;;;3.51;100.00;96783.06;4995819;28;20938;-78
2024/01/07 02:55:25;;;;;;;86.97;24.20;;;;;;;3.52;100.00;96779.44;5002094;28;20469;-78
2024/01/07 02:57:51;;;;;;;65.15;19.77;;;;;;;3.52;100.00;96779.44;5001511;28;20461;-78
2024/01/07 03:00:19;;;;;;;67.43;20.77;;;;;;;3.53;100.00;96782.84;4997872;28;20481;-76
2024/01/07 03:02:45;;;;;;;71.63;20.77;;;;;;;3.53;100.00;96785.47;4994832;28;20890;-76
2024/01/07 03:05:11;;;;;;;69.00;20.23;;;;;;;3.52;100.00;96786.47;4994949;28;20461;-77
2024/01/07 03:07:39;;;;;;;62.40;19.25;;;;;;;3.52;100.00;96786.47;4994561;28;20399;-77
2024/01/07 03:10:06;;;;;;;62.80;18.52;;;;;;;3.53;100.00;96785.47;4994141;28;20745;-77
2024/01/07 03:12:32;;;;;;;66.18;19.50;;;;;;;3.54;100.00;96787.84;4994115;28;20755;-77
2024/01/07 03:14:58;;;;;;;81.05;23.10;;;;;;;3.54;100.00;96781.81;4993939;28;20911;-77
2024/01/07 03:17:26;;;;;;;63.17;19.98;;;;;;;3.53;100.00;96793.31;4994277;28;20697;-77
2024/01/07 03:19:52;;;;;;;71.53;22.10;;;;;;;3.53;100.00;96786.28;4993908;28;20402;-77
2024/01/07 03:22:19;;;;;;;76.53;20.77;;;;;;;3.53;100.00;96788.88;4994545;28;20410;-77
2024/01/07 03:24:45;;;;;;;74.68;22.65;;;;;;;3.53;100.00;96795.94;4994755;28;20399;-76
2024/01/07 03:27:11;;;;;;;85.70;25.80;;;;;;;3.52;100.00;96791.72;4997134;28;20489;-77
2024/01/07 03:29:37;;;;;;;79.22;25.05;;;;;;;3.50;100.00;96797.16;4999758;28;20461;-77
2024/01/07 03:32:04;;;;;;;72.13;22.17;;;;;;;3.50;100.00;96799.78;4998678;28;20422;-76
2024/01/07 03:34:31;;;;;;;78.63;23.52;;;;;;;3.50;100.00;96799.78;4994186;28;20815;-76
2024/01/07 03:36:57;;;;;;;70.50;21.80;;;;;;;3.49;100.00;96793.75;4995755;28;20891;-78
2024/01/07 03:39:23;;;;;;;82.07;22.38;;;;;;;3.49;100.00;96795.56;4996131;28;20457;-78
2024/01/07 03:41:54;;;;;;;74.70;22.92;;;;;;;3.49;100.00;96803.41;4996394;28;20768;-78
2024/01/07 03:44:20;;;;;;;125.70;34.45;;;;;;;3.46;100.00;96802.03;4996285;28;20401;-78
2024/01/07 03:46:46;;;;;;;114.78;32.95;;;;;;;3.44;100.00;96798.06;4996372;28;20493;-77
2024/01/07 03:49:12;;;;;;;105.75;28.88;;;;;;;3.43;100.00;96801.69;4995649;28;20517;-78
2024/01/07 03:51:40;;;;;;;91.72;28.80;;;;;;;3.42;100.00;96797.47;4995579;28;20422;-78
2024/01/07 03:54:06;;;;;;;101.93;28.77;;;;;;;3.42;100.00;96797.47;4995389;28;20890;-78
2024/01/07 03:56:32;;;;;;;109.72;30.60;;;;;;;3.40;100.00;96795.06;4995504;28;20434;-78
2024/01/07 03:58:58;;;;;;;125.00;35.47;;;;;;;3.40;100.00;96802.09;4995860;28;20403;-78
2024/01/07 04:01:24;;;;;;;96.43;27.00;;;;;;;3.38;100.00;96804.16;4996925;28;20410;-78
2024/01/07 04:03:50;;;;;;;88.72;26.33;;;;;;;3.38;100.00;96812.78;4997054;28;20487;-79
2024/01/07 04:06:17;;;;;;;84.05;24.98;;;;;;;3.38;100.00;96806.78;4997878;28;20405;-79
2024/01/07 04:08:44;;;;;;;94.70;26.57;;;;;;;3.37;100.00;96807.81;4997825;28;20395;-78
2024/01/07 04:11:10;;;;;;;94.93;28.05;;;;;;;3.35;100.00;96810.63;4997101;28;20419;-79
2024/01/07 04:13:37;;;;;;;81.05;24.48;;;;;;;3.33;100.00;96804.81;4997954;28;20410;-79
2024/01/07 04:16:03;;;;;;;73.35;21.98;;;;;;;3.31;100.00;96800.81;5000890;28;20868;-78
2024/01/07 04:18:30;;;;;;;61.92;18.67;;;;;;;3.31;100.00;96806.84;5001579;28;20407;-79
2024/01/07 04:20:56;;;;;;;55.45;18.20;;;;;;;3.32;100.00;96818.09;5000502;28;20434;-79
2024/01/07 04:23:22;;;;;;;57.58;17.63;;;;;;;3.30;100.00;96813.09;4999333;28;20411;-79
2024/01/07 04:25:49;;;;;;;53.78;17.05;;;;;;;3.30;100.00;96817.53;4998975;28;20424;-78
2024/01/07 04:28:15;;;;;;;54.53;17.67;;;;;;;3.29;100.00;96818.56;4997973;28;20461;-78
2024/01/07 04:30:42;;;;;;;63.45;19.00;;;;;;;3.29;100.00;96815.94;4997050;28;20418;-78
2024/01/07 04:33:08;;;;;;;71.03;20.58;;;;;;;3.28;100.00;96817.75;4997702;28;20403;-78
2024/01/07 04:35:35;;;;;;;66.00;20.63;;;;;;;3.29;100.00;96821.16;4997825;28;20403;-79
2024/01/07 04:38:01;;;;;;;60.85;18.98;;;;;;;3.31;100.00;96819.91;4997500;28;20430;-79
2024/01/07 04:40:27;;;;;;;82.13;23.15;;;;;;;3.30;100.00;96831.41;4997543;28;20394;-78
2024/01/07 04:42:55;;;;;;;101.03;28.10;;;;;;;3.32;100.00;96831.19;4997993;28;20414;-79
2024/01/07 04:45:21;;;;;;;80.80;25.35;;;;;;;3.31;100.00;96829.56;4997885;28;20430;-79
2024/01/07 04:47:47;;;;;;;75.65;25.08;;;;;;;3.31;100.00;96840.84;4996997;28;20394;-79
2024/01/07 04:50:14;;;;;;;71.60;22.40;;;;;;;3.32;100.00;96833.78;4997812;28;20489;-78
2024/01/07 04:52:41;;;;;;;66.95;20.88;;;;;;;3.32;100.00;96833.78;4998056;28;20434;-78
2024/01/07 04:55:08;;;;;;;72.93;21.48;;;;;;;3.32;100.00;96839.81;4997564;28;20456;-78
2024/01/07 04:57:35;;;;;;;68.07;20.80;;;;;;;3.31;100.00;96843.47;4998129;28;20399;-79
2024/01/07 05:00:04;;;;;;;70.63;21.90;;;;;;;3.30;100.00;96839.25;4998723;28;20542;-79
2024/01/07 05:02:30;;;;;;;82.22;24.88;;;;;;;3.30;100.00;96841.09;4999916;28;20429;-79
2024/01/07 05:04:57;;;;;;;84.70;24.17;;;;;;;3.27;100.00;96844.91;4999135;28;20453;-79
2024/01/07 05:07:23;;;;;;;112.90;29.35;;;;;;;3.24;100.00;96841.94;4998049;28;20795;-79
2024/01/07 05:09:49;;;;;;;89.00;24.83;;;;;;;3.23;100.00;96845.59;4997609;28;20413;-79
2024/01/07 05:12:15;;;;;;;66.27;19.77;;;;;;;3.22;100.00;96847.41;4998585;28;20545;-79
2024/01/07 05:14:42;;;;;;;88.20;23.95;;;;;;;3.22;100.00;96844.78;4998067;28;20402;-79
2024/01/07 05:17:10;;;;;;;85.47;24.92;;;;;;;3.22;100.00;96854.44;4997863;28;20516;-79
2024/01/07 05:19:36;;;;;;;84.57;24.33;;;;;;;3.20;100.00;96857.28;4999524;28;20433;-79
2024/01/07 05:22:02;;;;;;;67.55;20.73;;;;;;;3.20;100.00;96856.47;4999679;28;20410;-79
2024/01/07 05:24:28;;;;;;;81.22;24.40;;;;;;;3.19;100.00;96860.91;5000542;28;20430;-79
2024/01/07 05:26:54;;;;;;;73.22;22.05;;;;;;;3.18;100.00;96859.28;5000431;28;20461;-79
2024/01/07 05:29:21;;;;;;;66.03;20.10;;;;;;;3.19;100.00;96855.66;4999901;28;20410;-79
2024/01/07 05:31:47;;;;;;;88.07;22.00;;;;;;;3.21;100.00;96865.91;4997034;28;20442;-78
2024/01/07 05:34:14;;;;;;;90.05;25.95;;;;;;;3.19;100.00;96857.47;5014522;28;20412;-79
2024/01/07 05:36:40;;;;;;;88.43;25.77;;;;;;;3.17;100.00;96862.13;5017318;28;20428;-79
2024/01/07 05:39:07;;;;;;;92.40;26.07;;;;;;;3.16;100.00;96863.94;5017469;28;20400;-78
2024/01/07 05:41:33;;;;;;;91.28;24.92;;;;;;;3.15;100.00;96861.56;5016890;28;20469;-78
2024/01/07 05:43:59;;;;;;;82.07;23.90;;;;;;;3.14;100.00;96863.38;5016776;28;20421;-79
2024/01/07 05:46:25;;;;;;;71.15;22.17;;;;;;;3.14;100.00;96863.38;5017283;28;20405;-79
2024/01/07 05:48:51;;;;;;;68.55;21.23;;;;;;;3.14;100.00;96873.84;5017711;28;20421;-79
2024/01/07 05:51:19;;;;;;;79.18;24.35;;;;;;;3.14;100.00;96879.06;5019350;28;20417;-80
2024/01/07 05:53:46;;;;;;;76.27;22.00;;;;;;;3.12;100.00;96875.84;5019335;28;20419;-79
2024/01/07 05:56:12;;;;;;;65.60;19.63;;;;;;;3.13;100.00;96882.69;5017105;28;20751;-80
2024/01/07 05:58:38;;;;;;;54.17;18.07;;;;;;;3.13;100.00;96885.31;5015728;28;20483;-78
2024/01/07 06:01:05;;;;;;;59.50;19.45;;;;;;;3.14;100.00;96880.88;5014827;28;20828;-79
2024/01/07 06:03:31;;;;;;;67.10;20.80;;;;;;;3.14;100.00;96886.09;5010070;28;20501;-79
2024/01/07 06:05:58;;;;;;;78.50;24.58;;;;;;;3.12;100.00;96886.31;5007541;28;20405;-79
2024/01/07 06:08:25;;;;;;;77.30;23.83;;;;;;;3.11;100.00;96882.91;5004494;28;20405;-79
2024/01/07 06:10:52;;;;;;;74.75;24.02;;;;;;;3.10;100.00;96890.94;4992369;28;20557;-79
2024/01/07 06:13:18;;;;;;;63.45;20.90;;;;;;;3.10;100.00;96893.56;4995292;28;20430;-81
2024/01/07 06:15:44;;;;;;;59.53;19.73;;;;;;;3.11;100.00;96892.56;4995087;28;20406;-81
2024/01/07 06:18:10;;;;;;;65.38;22.20;;;;;;;3.10;100.00;96893.56;4995993;28;20405;-79
2024/01/07 06:20:36;;;;;;;52.35;19.00;;;;;;;3.09;100.00;96895.38;4994964;28;20922;-80
2024/01/07 06:23:03;;;;;;;73.97;24.92;;;;;;;3.09;100.00;96899.81;4994785;28;20402;-79
2024/01/07 06:25:30;;;;;;;68.45;22.33;;;;;;;3.08;100.00;96900.84;4994548;28;20402;-80
2024/01/07 06:27:56;;;;;;;96.55;27.63;;;;;;;3.07;100.00;96902.66;4997168;28;20449;-79
2024/01/07 06:30:22;;;;;;;85.43;27.90;;;;;;;3.07;100.00;96909.69;4998804;28;20763;-80
2024/01/07 06:32:49;;;;;;;84.53;28.48;;;;;;;3.06;100.00;96906.28;4998884;28;20430;-78
2024/01/07 06:35:15;;;;;;;81.65;27.05;;;;;;;3.06;100.00;96908.91;4998043;28;20399;-79
2024/01/07 06:37:41;;;;;;;77.03;25.75;;;;;;;3.05;100.00;96909.09;4997846;28;20898;-78
2024/01/07 06:40:08;;;;;;;76.68;24.65;;;;;;;3.03;100.00;96911.94;4997710;28;20940;-79
2024/01/07 06:42:36;;;;;;;74.57;25.08;;;;;;;3.04;100.00;96920.59;4998849;28;20406;-79
2024/01/07 06:45:03;;;;;;;72.25;26.10;;;;;;;3.03;100.00;96919.78;4997643;28;20393;-79
2024/01/07 06:47:29;;;;;;;76.35;26.83;;;;;;;3.02;100.00;96922.59;4996819;28;20402;-78
2024/01/07 06:49:55;;;;;;;65.43;25.58;;;;;;;3.01;100.00;96934.06;4996634;28;20438;-78
2024/01/07 06:52:21;;;;;;;69.57;24.40;;;;;;;3.00;100.00;96930.69;4996982;28;20420;-78
2024/01/07 06:54:47;;;;;;;64.55;24.40;;;;;;;3.02;100.00;96933.06;4997027;28;20395;-79
2024/01/07 06:57:14;;;;;;;58.27;22.30;;;;;;;3.03;100.00;96937.28;4997657;28;20564;-78
2024/01/07 06:59:41;;;;;;;64.72;24.38;;;;;;;3.01;100.00;96934.88;4997479;28;20689;-78
2024/01/07 07:02:07;;;;;;;78.38;27.08;;;;;;;3.01;100.00;96934.06;4996893;28;20415;-79
2024/01/07 07:04:34;;;;;;;71.20;26.52;;;;;;;3.02;100.00;96938.28;4996498;28;20550;-79
2024/01/07 07:07:00;;;;;;;75.43;28.05;;;;;;;3.01;100.00;96944.53;4997063;28;20402;-78
2024/01/07 07:09:26;;;;;;;76.13;28.77;;;;;;;3.00;100.00;96951.59;4996215;28;20408;-79
2024/01/07 07:11:52;;;;;;;76.88;28.98;;;;;;;2.99;100.00;96952.59;4996307;28;20954;-79
2024/01/07 07:14:18;;;;;;;79.57;30.85;;;;;;;2.97;100.00;96953.81;4996370;28;20398;-79
2024/01/07 07:16:46;;;;;;;67.72;26.33;;;;;;;2.97;100.00;96957.25;4996138;28;20402;-78
2024/01/07 07:19:14;;;;;;;70.22;26.42;;;;;;;2.97;100.00;96956.44;4995890;28;20811;-78
2024/01/07 07:21:40;;;;;;;65.45;25.67;;;;;;;2.96;100.00;96963.47;4996016;28;20820;-79
2024/01/07 07:24:07;;;;;;;60.55;24.45;;;;;;;2.97;100.00;96974.75;4995567;28;20811;-78
2024/01/07 07:26:35;;;;;;;60.38;25.80;;;;;;;2.95;100.00;96977.56;4998689;28;20869;-81
2024/01/07 07:29:02;;;;;;;63.47;25.33;;;;;;;2.95;100.00;96974.94;5003933;28;20422;-80
2024/01/07 07:31:28;;;;;;;58.42;24.58;;;;;;;2.94;100.00;96983.78;5004367;28;20532;-80
2024/01/07 07:33:55;;;;;;;70.90;28.00;;;;;;;2.91;100.00;96976.41;5005937;28;20418;-80
2024/01/07 07:36:21;;;;;;;62.97;26.60;;;;;;;2.89;100.00;96986.25;5003354;28;20446;-81
2024/01/07 07:38:47;;;;;;;78.05;29.17;;;;;;;2.86;100.00;96986.66;5002368;28;20406;-83
2024/01/07 07:41:14;;;;;;;87.28;33.75;;;;;;;2.84;100.00;96990.53;5000322;28;20492;-80
2024/01/07 07:43:40;;;;;;;68.15;28.48;;;;;;;2.82;100.00;97001.19;5005253;28;20413;-81
2024/01/07 07:46:06;;;;;;;77.25;30.00;;;;;;;2.80;100.00;97000.59;5005810;28;20403;-80
2024/01/07 07:48:32;;;;;;;66.43;26.75;;;;;;;2.79;100.00;97011.25;5003702;28;20407;-79
2024/01/07 07:50:59;;;;;;;79.27;30.87;;;;;;;2.73;100.00;97007.66;5002639;28;20422;-81
2024/01/07 07:53:25;;;;;;;63.33;27.23;;;;;;;2.72;100.00;97008.69;5001170;28;20399;-79
2024/01/07 07:55:52;;;;;;;58.88;25.83;;;;;;;2.71;100.00;97010.50;5003669;28;20398;-79
2024/01/07 07:58:18;;;;;;;58.58;26.05;;;;;;;2.70;100.00;97013.34;5003789;28;20399;-79
2024/01/07 08:00:44;;;;;;;55.60;24.50;;;;;;;2.69;100.00;97017.75;4993796;28;20418;-80
2024/01/07 08:03:10;;;;;;;52.25;23.13;;;;;;;2.69;100.00;97011.72;4995000;28;20915;-79
2024/01/07 08:05:37;;;;;;;52.43;22.00;;;;;;;2.68;100.00;97017.97;4993853;28;20647;-79
2024/01/07 08:08:05;;;;;;;50.10;21.40;;;;;;;2.68;100.00;97024.00;4995729;28;20484;-80
2024/01/07 08:10:32;;;;;;;47.60;20.25;;;;;;;2.68;100.00;97020.56;4995698;28;20415;-79
2024/01/07 08:12:58;;;;;;;49.03;22.20;;;;;;;2.67;100.00;97025.00;4993844;28;20421;-80
2024/01/07 08:15:26;;;;;;;56.88;22.73;;;;;;;2.66;100.00;97025.19;4997101;28;20433;-79
2024/01/07 08:17:52;;;;;;;47.88;20.98;;;;;;;2.66;100.00;97027.81;4997526;28;20441;-80
2024/01/07 08:20:19;;;;;;;48.25;21.48;;;;;;;2.65;100.00;97024.41;4991744;28;20400;-80
2024/01/07 08:22:45;;;;;;;55.13;21.80;;;;;;;2.65;100.00;97023.59;4994879;28;20415;-80
2024/01/07 08:25:13;;;;;;;43.70;19.20;;;;;;;2.64;100.00;97025.41;4995821;28;20435;-80
2024/01/07 08:27:41;;;;;;;50.40;22.37;;;;;;;2.63;100.00;97031.63;4994907;28;20404;-79
2024/01/07 08:30:08;;;;;;;50.90;21.83;;;;;;;2.63;100.00;97029.03;4994436;28;20457;-79
2024/01/07 08:32:35;;;;;;;48.50;20.33;;;;;;;2.63;100.00;97042.09;4994902;28;20959;-80
2024/01/07 08:35:01;;;;;;;45.28;19.52;;;;;;;2.61;100.00;97033.69;4990901;28;20910;-80
2024/01/07 08:37:27;;;;;;;38.13;17.35;;;;;;;2.63;100.00;97038.69;4994037;28;20400;-80
2024/01/07 08:39:54;;;;;;;47.65;19.90;;;;;;;2.63;100.00;97034.25;4999879;28;20405;-80
2024/01/07 08:42:21;;;;;;;45.63;19.35;;;;;;;2.63;100.00;97044.69;4997907;28;20417;-80
2024/01/07 08:44:47;;;;;;;47.10;19.42;;;;;;;2.64;100.00;97045.50;4994113;28;20459;-80
2024/01/07 08:47:14;;;;;;;57.70;22.88;;;;;;;2.63;100.00;97049.94;4992807;28;20807;-79
2024/01/07 08:49:40;;;;;;;51.75;22.25;;;;;;;2.61;100.00;97051.97;4995815;28;20466;-80
2024/01/07 08:52:06;;;;;;;57.63;22.15;;;;;;;2.61;100.00;97054.59;4991038;28;20447;-79
2024/01/07 08:54:33;;;;;;;57.17;23.45;;;;;;;2.61;100.00;97056.38;4983594;28;20563;-79
2024/01/07 08:56:59;;;;;;;65.50;25.80;;;;;;;2.59;100.00;97058.41;4983749;28;20489;-79
2024/01/07 08:59:26;;;;;;;65.93;24.92;;;;;;;2.58;100.00;97049.75;4984346;28;20411;-80
2024/01/07 09:01:52;;;;;;;53.15;21.42;;;;;;;2.59;100.00;97053.19;4996283;28;20407;-79
2024/01/07 09:04:19;;;;;;;51.17;19.80;;;;;;;2.60;100.00;97066.03;4997369;28;20406;-79
2024/01/07 09:06:45;;;;;;;50.33;20.70;;;;;;;2.62;100.00;97069.25;5000400;28;20411;-79
2024/01/07 09:09:11;;;;;;;53.10;21.50;;;;;;;2.63;100.00;97070.81;4999576;28;20444;-78
2024/01/07 09:11:37;;;;;;;48.10;19.10;;;;;;;2.63;100.00;97068.22;4999739;28;20456;-78
2024/01/07 09:14:03;;;;;;;44.85;19.95;;;;;;;2.60;100.00;97079.09;5000398;28;20404;-81
2024/01/07 09:16:31;;;;;;;42.58;18.13;;;;;;;2.64;100.00;97079.47;4999716;28;20409;-78
2024/01/07 09:18:57;;;;;;;39.03;17.73;;;;;;;2.66;100.00;97090.53;5001790;28;20437;-79
2024/01/07 09:21:23;;;;;;;43.03;18.98;;;;;;;2.69;100.00;97077.06;5007638;28;20845;-79
2024/01/07 09:23:50;;;;;;;37.50;17.88;;;;;;;2.71;100.00;97085.47;5000889;28;20399;-78
2024/01/07 09:26:16;;;;;;;30.67;14.85;;;;;;;2.75;100.00;97091.09;4983448;28;20421;-78
2024/01/07 09:28:42;;;;;;;33.63;14.68;;;;;;;2.80;100.00;97096.47;4987377;28;20875;-78
2024/01/07 09:31:09;;;;;;;37.00;15.73;;;;;;;2.85;100.00;97099.28;5000117;28;20848;-78
2024/01/07 09:33:36;;;;;;;30.15;14.25;;;;;;;2.89;100.00;97095.25;4996741;28;20406;-78
2024/01/07 09:36:02;;;;;;;38.15;16.42;;;;;;;2.91;100.00;97107.09;4997046;28;20729;-77
2024/01/07 09:38:29;;;;;;;36.17;16.70;;;;;;;2.92;100.00;97095.63;4992926;28;20407;-78
2024/01/07 09:40:55;;;;;;;36.42;16.13;;;;;;;2.93;100.00;97102.44;4995187;28;20453;-78
2024/01/07 09:43:21;;;;;;;37.95;16.67;;;;;;;2.94;100.00;97098.81;4985725;28;20470;-77
2024/01/07 09:45:48;;;;;;;30.60;14.97;;;;;;;2.98;100.00;97104.44;4980749;28;20488;-77
2024/01/07 09:48:15;;;;;;;25.13;13.55;;;;;;;3.02;100.00;97106.41;4987138;28;20416;-79
2024/01/07 09:50:42;;;;;;;32.58;14.48;;;;;;;3.05;100.00;97106.00;4989953;28;20408;-78
2024/01/07 09:53:16;;;;;;;36.75;16.95;;;;;;;3.04;100.00;97098.38;4993880;28;20503;-77
2024/01/07 09:55:52;;;;;;;28.92;14.13;;;;;;;3.03;100.00;97102.00;4984663;28;20401;-77
2024/01/07 09:58:18;;;;;;;30.00;14.27;;;;;;;3.01;100.00;97096.97;4981038;28;20893;-77
2024/01/07 10:00:44;;;;;;;32.53;14.55;;;;;;;3.01;100.00;97101.41;4984327;28;20487;-77
2024/01/07 10:03:10;;;;;;;27.17;12.20;;;;;;;2.98;100.00;97097.41;4986238;28;20398;-77
2024/01/07 10:05:37;;;;;;;26.55;12.55;;;;;;;2.97;100.00;97097.59;4996541;28;20433;-77
2024/01/07 10:08:06;;;;;;;24.73;11.73;;;;;;;2.97;100.00;97100.22;4988355;28;20928;-77
2024/01/07 10:10:34;;;;;;;24.83;12.07;;;;;;;2.96;100.00;97088.97;4978922;28;20893;-78
2024/01/07 10:13:00;;;;;;;23.20;11.50;;;;;;;2.96;100.00;97088.97;4981765;28;20942;-78
2024/01/07 10:15:27;;;;;;;26.85;12.27;;;;;;;2.97;100.00;97093.19;4979311;28;20805;-78
2024/01/07 10:18:02;;;;;;;26.93;12.23;;;;;;;2.97;100.00;97084.53;4978380;28;20404;-78
2024/01/07 10:20:30;;;;;;;30.60;14.20;;;;;;;2.96;100.00;97088.16;4985180;28;20392;-78
2024/01/07 10:22:57;;;;;;;32.08;14.02;;;;;;;2.94;100.00;97096.22;4985255;28;20415;-78
2024/01/07 10:25:24;;;;;;;34.80;16.33;;;;;;;2.93;100.00;97096.44;4979278;28;20408;-78
2024/01/07 10:27:51;;;;;;;49.78;20.92;;;;;;;2.86;100.00;97090.41;4978871;28;20813;-78
2024/01/07 10:30:18;;;;;;;62.58;25.35;;;;;;;2.77;100.00;97104.75;4981106;28;20394;-78
2024/01/07 10:32:45;;;;;;;52.08;21.65;;;;;;;2.72;100.00;97110.59;4979914;28;20454;-78
2024/01/07 10:35:16;;;;;;;45.45;19.98;;;;;;;2.70;100.00;97115.25;4985529;28;20401;-78
2024/01/07 10:37:44;;;;;;;40.28;18.70;;;;;;;2.68;100.00;97106.81;4987125;28;20435;-78
2024/01/07 10:40:12;;;;;;;45.33;19.55;;;;;;;2.67;100.00;97111.22;4986299;28;20447;-78
2024/01/07 10:42:40;;;;;;;40.58;16.80;;;;;;;2.65;100.00;97115.84;4987148;28;20408;-77
2024/01/07 10:45:07;;;;;;;46.77;19.00;;;;;;;2.66;100.00;97114.03;4987431;28;20400;-77
2024/01/07 10:47:36;;;;;;;45.13;18.85;;;;;;;2.63;100.00;97124.94;4987139;28;20437;-78
2024/01/07 10:50:03;;;;;;;35.05;16.38;;;;;;;2.61;100.00;97122.50;4986083;28;20400;-80
2024/01/07 10:52:32;;;;;;;39.45;15.10;;;;;;;2.61;100.00;97121.72;4986017;28;20447;-78
2024/01/07 10:55:03;;;;;;;31.40;14.70;;;;;;;2.61;100.00;97126.94;4983963;28;20400;-78
2024/01/07 10:57:40;;;;;;;44.70;17.15;;;;;;;2.61;100.00;97130.34;4980194;28;20411;-78
2024/01/07 11:00:18;;;;;;;35.45;15.68;;;;;;;2.61;100.00;97126.94;4980551;28;20446;-79
2024/01/07 11:02:53;;;;;;;42.33;18.17;;;;;;;2.56;100.00;97132.75;4984132;28;20464;-79
2024/01/07 11:05:27;;;;;;;51.83;20.25;;;;;;;2.54;100.00;97134.81;5005131;28;20402;-79
2024/01/07 11:08:01;;;;;;;46.50;17.90;;;;;;;2.52;100.00;97131.59;5004674;28;20430;-79
2024/01/07 11:10:34;;;;;;;36.10;16.13;;;;;;;2.52;100.00;97130.78;5003577;28;20402;-79
2024/01/07 11:13:01;;;;;;;38.30;16.35;;;;;;;2.53;100.00;97135.81;5004696;28;20449;-79
2024/01/07 11:15:52;;;;;;;44.53;15.90;;;;;;;2.51;100.00;97132.59;5005204;28;20498;-80